createdAt,value
2023-04-14T00:02:00.414Z,1.00
2023-04-14T00:04:36.944Z,1.00
2023-04-14T00:07:13.418Z,1.00
2023-04-14T00:09:49.574Z,1.00
2023-04-14T00:12:30.616Z,99.90
2023-04-14T00:15:17.102Z,1.00
2023-04-14T00:18:01.752Z,1.00
2023-04-14T00:20:37.945Z,1.00
2023-04-14T00:23:14.126Z,1.00
2023-04-14T00:25:52.381Z,1.00
2023-04-14T00:28:30.890Z,1.00
2023-04-14T00:31:06.815Z,1.00
2023-04-14T00:33:44.625Z,99.90
2023-04-14T00:36:19.832Z,99.90
2023-04-14T00:38:55.224Z,1.00
2023-04-14T00:41:35.794Z,1.00
2023-04-14T00:44:13.853Z,99.90
2023-04-14T00:46:49.743Z,1.00
2023-04-14T00:49:25.719Z,1.00
2023-04-14T00:52:01.739Z,1.00
2023-04-14T00:54:41.398Z,1.00
2023-04-14T00:57:17.970Z,1.00
2023-04-14T00:59:57.238Z,1.00
2023-04-14T01:02:36.212Z,1.00
2023-04-14T01:05:12.513Z,92.80
2023-04-14T01:07:49.352Z,13.70
2023-04-14T01:10:32.737Z,1.00
2023-04-14T01:13:19.622Z,1.00
2023-04-14T01:16:02.812Z,1.00
2023-04-14T01:18:47.071Z,1.00
2023-04-14T01:21:35.589Z,45.90
2023-04-14T01:24:35.047Z,1.00
2023-04-14T01:27:27.756Z,1.00
2023-04-14T01:30:19.567Z,1.00
2023-04-14T01:33:01.914Z,1.00
2023-04-14T01:35:42.099Z,1.00
2023-04-14T01:38:26.705Z,1.00
2023-04-14T01:41:06.544Z,1.00
2023-04-14T01:43:49.736Z,1.00
2023-04-14T01:46:25.698Z,1.00
2023-04-14T01:49:04.403Z,1.00
2023-04-14T01:51:41.539Z,99.90
2023-04-14T01:54:20.124Z,1.00
2023-04-14T01:56:57.253Z,1.00
2023-04-14T01:59:35.324Z,1.00
2023-04-14T02:02:13.211Z,1.00
2023-04-14T02:04:53.936Z,1.00
2023-04-14T02:07:31.292Z,1.00
2023-04-14T02:10:09.725Z,99.90
2023-04-14T02:12:46.426Z,99.90
2023-04-14T02:15:38.228Z,1.00
2023-04-14T02:18:18.926Z,1.00
2023-04-14T02:21:02.407Z,99.90
2023-04-14T02:23:40.306Z,99.90
2023-04-14T02:26:19.159Z,1.00
2023-04-14T02:29:03.626Z,1.00
2023-04-14T02:31:44.847Z,99.90
2023-04-14T02:34:28.313Z,99.90
2023-04-14T02:37:12.998Z,99.90
2023-04-14T02:39:53.582Z,1.00
2023-04-14T02:42:33.363Z,99.90
2023-04-14T02:45:19.519Z,1.00
2023-04-14T02:47:59.822Z,99.90
2023-04-14T02:50:37.476Z,98.50
2023-04-14T02:53:28.104Z,20.20
2023-04-14T02:56:19.764Z,1.00
2023-04-14T02:59:02.523Z,1.00
2023-04-14T03:01:41.218Z,1.00
2023-04-14T03:04:18.445Z,1.00
2023-04-14T03:06:55.325Z,1.00
2023-04-14T03:09:34.004Z,99.90
2023-04-14T03:12:12.512Z,77.80
2023-04-14T03:14:49.671Z,99.90
2023-04-14T03:17:25.759Z,99.90
2023-04-14T03:20:03.931Z,99.90
2023-04-14T03:22:42.081Z,1.00
2023-04-14T03:25:23.363Z,1.00
2023-04-14T03:28:03.855Z,1.00
2023-04-14T03:30:42.486Z,1.00
2023-04-14T03:33:23.413Z,1.00
2023-04-14T03:36:01.315Z,1.00
2023-04-14T03:38:38.992Z,1.00
2023-04-14T03:41:27.007Z,1.00
2023-04-14T03:44:07.490Z,1.00
2023-04-14T03:46:44.008Z,1.00
2023-04-14T03:49:22.060Z,1.00
2023-04-14T03:52:05.628Z,1.00
2023-04-14T03:54:44.018Z,1.00
2023-04-14T03:57:24.945Z,1.00
2023-04-14T04:00:04.185Z,1.00
2023-04-14T04:02:48.965Z,1.00
2023-04-14T04:05:25.737Z,1.00
2023-04-14T04:08:07.077Z,1.00
2023-04-14T04:10:47.338Z,1.00
2023-04-14T04:13:29.276Z,1.00
2023-04-14T04:16:12.387Z,1.00
2023-04-14T04:18:50.495Z,1.00
2023-04-14T04:21:33.542Z,1.00
2023-04-14T04:24:10.572Z,1.00
2023-04-14T04:26:46.632Z,1.00
2023-04-14T04:29:25.801Z,1.00
2023-04-14T04:32:01.217Z,1.00
2023-04-14T04:34:38.042Z,1.00
2023-04-14T04:37:13.527Z,1.00
2023-04-14T04:39:48.767Z,32.20
2023-04-14T04:42:25.174Z,26.90
2023-04-14T04:45:04.172Z,23.30
2023-04-14T04:47:39.425Z,12.80
2023-04-14T04:50:14.777Z,16.80
2023-04-14T04:52:49.816Z,1.00
2023-04-14T04:55:24.932Z,6.40
2023-04-14T04:58:00.122Z,2.10
2023-04-14T05:00:40.919Z,24.30
2023-04-14T05:03:16.840Z,26.30
2023-04-14T05:05:52.070Z,27.50
2023-04-14T05:08:28.086Z,1.00
2023-04-14T05:11:03.442Z,1.00
2023-04-14T05:13:39.377Z,1.00
2023-04-14T05:16:18.954Z,5.80
2023-04-14T05:18:54.852Z,1.00
2023-04-14T05:21:30.202Z,13.30
2023-04-14T05:24:05.657Z,2.40
2023-04-14T05:29:19.107Z,41.50
2023-04-14T05:31:56.905Z,59.70
2023-04-14T05:34:32.277Z,99.90
2023-04-14T05:37:07.603Z,99.90
2023-04-14T05:39:42.952Z,99.90
2023-04-14T05:42:18.334Z,99.90
2023-04-14T05:44:53.940Z,99.90
2023-04-14T05:47:32.303Z,94.30
2023-04-14T05:50:09.603Z,99.90
2023-04-14T05:52:45.869Z,99.90
2023-04-14T05:55:21.810Z,99.90
2023-04-14T05:57:57.667Z,99.90
2023-04-14T06:00:33.091Z,99.90
2023-04-14T06:03:11.954Z,36.10
2023-04-14T06:05:48.544Z,12.50
2023-04-14T06:08:25.675Z,80.20
2023-04-14T06:11:01.013Z,99.90
2023-04-14T06:13:37.050Z,99.90
2023-04-14T06:16:13.155Z,99.90
2023-04-14T06:18:51.199Z,99.90
2023-04-14T06:21:26.917Z,99.90
2023-04-14T06:24:02.622Z,99.90
2023-04-14T06:26:38.054Z,99.90
2023-04-14T06:29:13.504Z,99.90
2023-04-14T06:31:48.754Z,99.90
2023-04-14T06:34:26.760Z,99.90
2023-04-14T06:37:01.967Z,99.90
2023-04-14T06:39:37.415Z,99.90
2023-04-14T06:42:13.478Z,99.90
2023-04-14T06:44:49.793Z,99.90
2023-04-14T06:47:25.790Z,99.90
2023-04-14T06:50:04.140Z,99.90
2023-04-14T06:52:39.309Z,99.90
2023-04-14T06:55:15.146Z,99.90
2023-04-14T06:57:50.932Z,90.80
2023-04-14T07:00:26.908Z,51.40
2023-04-14T07:03:02.859Z,28.10
2023-04-14T07:05:41.261Z,52.60
2023-04-14T07:08:17.350Z,26.50
2023-04-14T07:10:53.894Z,44.10
2023-04-14T07:13:29.494Z,44.00
2023-04-14T07:16:07.192Z,44.60
2023-04-14T07:18:43.036Z,31.50
2023-04-14T07:21:22.451Z,1.00
2023-04-14T07:23:57.872Z,1.00
2023-04-14T07:26:33.505Z,1.00
2023-04-14T07:29:09.690Z,1.00
2023-04-14T07:31:45.509Z,1.00
2023-04-14T07:34:21.815Z,1.00
2023-04-14T07:36:59.753Z,1.00
2023-04-14T07:39:35.812Z,24.60
2023-04-14T07:42:11.502Z,57.80
2023-04-14T07:44:46.936Z,52.00
2023-04-14T07:47:22.511Z,72.30
2023-04-14T07:49:58.596Z,18.30
2023-04-14T07:52:37.252Z,1.00
2023-04-14T07:55:13.797Z,1.00
2023-04-14T07:57:49.637Z,1.00
2023-04-14T08:00:25.539Z,1.00
2023-04-14T08:03:01.190Z,1.00
2023-04-14T08:05:37.098Z,1.00
2023-04-14T08:08:15.842Z,1.00
2023-04-14T08:10:51.403Z,1.00
2023-04-14T08:13:26.913Z,1.00
2023-04-14T08:16:02.271Z,11.60
2023-04-14T08:18:37.659Z,15.70
2023-04-14T08:21:13.986Z,1.00
2023-04-14T08:23:52.756Z,1.00
2023-04-14T08:26:29.212Z,1.00
2023-04-14T08:29:04.692Z,1.00
2023-04-14T08:31:40.292Z,1.00
2023-04-14T08:34:21.200Z,59.50
2023-04-14T08:37:04.238Z,5.30
2023-04-14T08:39:42.232Z,69.00
2023-04-14T08:42:19.290Z,79.30
2023-04-14T08:44:56.258Z,44.20
2023-04-14T08:47:33.709Z,52.40
2023-04-14T08:50:18.782Z,57.40
2023-04-14T08:52:58.559Z,53.00
2023-04-14T08:55:38.910Z,51.80
2023-04-14T08:58:14.710Z,1.00
2023-04-14T09:00:51.301Z,1.00
2023-04-14T09:03:27.468Z,19.20
2023-04-14T09:06:03.197Z,9.40
2023-04-14T09:08:39.376Z,1.00
2023-04-14T09:11:19.588Z,14.10
2023-04-14T09:14:11.861Z,1.00
2023-04-14T09:16:49.016Z,1.80
2023-04-14T09:19:25.214Z,32.90
2023-04-14T09:22:00.423Z,12.10
2023-04-14T09:24:36.317Z,23.90
2023-04-14T09:27:14.243Z,19.40
2023-04-14T09:29:51.781Z,1.00
2023-04-14T09:32:27.396Z,1.00
2023-04-14T09:35:03.662Z,1.00
2023-04-14T09:37:46.616Z,1.00
2023-04-14T09:40:32.391Z,1.00
2023-04-14T09:43:13.169Z,1.00
2023-04-14T09:45:48.707Z,1.00
2023-04-14T09:48:25.169Z,1.00
2023-04-14T09:51:02.938Z,1.00
2023-04-14T09:53:39.385Z,1.00
2023-04-14T09:56:16.086Z,1.00
2023-04-14T09:58:53.978Z,1.00
2023-04-14T10:01:34.115Z,1.00
2023-04-14T10:04:26.665Z,1.00
2023-04-14T10:07:02.504Z,1.00
2023-04-14T10:09:41.029Z,1.00
2023-04-14T10:12:18.879Z,2.60
2023-04-14T10:14:56.870Z,1.00
2023-04-14T10:17:34.207Z,1.00
2023-04-14T10:20:11.093Z,1.00
2023-04-14T10:22:46.726Z,1.00
2023-04-14T10:25:22.328Z,1.00
2023-04-14T10:27:59.466Z,1.00
2023-04-14T10:30:39.383Z,12.10
2023-04-14T10:33:14.949Z,1.00
2023-04-14T10:35:54.732Z,8.40
2023-04-14T10:38:44.251Z,1.00
2023-04-14T10:41:19.894Z,18.00
2023-04-14T10:43:55.290Z,1.00
2023-04-14T10:46:45.932Z,24.10
2023-04-14T10:49:22.136Z,11.00
2023-04-14T10:51:58.844Z,2.20
2023-04-14T10:54:52.825Z,38.40
2023-04-14T10:57:29.775Z,48.30
2023-04-14T11:00:25.393Z,72.30
2023-04-14T11:03:13.472Z,58.70
2023-04-14T11:05:52.050Z,2.90
2023-04-14T11:08:29.482Z,12.40
2023-04-14T11:11:06.432Z,31.90
2023-04-14T11:13:42.621Z,27.90
2023-04-14T11:16:40.266Z,1.00
2023-04-14T11:19:26.156Z,1.00
2023-04-14T11:22:02.078Z,1.00
2023-04-14T11:24:40.232Z,1.00
2023-04-14T11:27:17.050Z,1.00
2023-04-14T11:30:01.264Z,11.50
2023-04-14T11:32:51.966Z,1.00
2023-04-14T11:35:47.134Z,1.00
2023-04-14T11:38:31.447Z,1.00
2023-04-14T11:41:08.609Z,1.00
2023-04-14T11:43:47.414Z,3.90
2023-04-14T11:46:26.195Z,1.00
2023-04-14T11:49:01.962Z,1.00
2023-04-14T11:51:41.394Z,15.30
2023-04-14T11:54:17.210Z,12.40
2023-04-14T11:56:53.015Z,8.30
2023-04-14T11:59:28.446Z,15.30
2023-04-14T12:02:04.837Z,30.10
2023-04-14T12:04:41.658Z,18.30
2023-04-14T12:07:32.414Z,44.00
2023-04-14T12:10:10.553Z,89.80
2023-04-14T12:12:47.200Z,82.20
2023-04-14T12:15:23.662Z,97.80
2023-04-14T12:18:02.246Z,83.30
2023-04-14T12:20:45.323Z,92.80
2023-04-14T12:23:23.707Z,99.90
2023-04-14T12:26:02.004Z,99.90
2023-04-14T12:28:39.377Z,89.50
2023-04-14T12:34:38.091Z,31.90
2023-04-14T12:37:15.249Z,26.90
2023-04-14T12:39:58.578Z,77.80
